Time;durP1;ratioP1;P1;durP2;ratioP2;P2;SDS_P1;SDS_P2;PMS_P1;PMS_P2;Temp;Humidity;BMP_temperature;BMP_pressure;BME280_temperature;BME280_humidity;BME280_pressure;Samples;Min_cycle;Max_cycle;Signal;HPM_P1;HPM_P2
2021/11/28 00:01:22;;;;;;;51.30;39.03;;;7.30;99.90;;;7.42;83.70;99315.34;5052151;28;20049;-68
2021/11/28 00:03:53;;;;;;;52.13;39.93;;;7.30;99.90;;;7.42;83.82;99316.22;5052424;28;20041;-68
2021/11/28 00:06:23;;;;;;;;;;;7.30;99.90;;;7.34;83.62;99333.88;5052475;28;20045;-68
2021/11/28 00:12:09;;;;;;;57.47;41.22;;;7.30;99.90;;;7.49;83.53;99345.94;5037314;28;20140;-68
2021/11/28 00:14:38;;;;;;;56.40;40.63;;;7.40;99.90;;;7.43;83.67;99346.03;5052317;28;20041;-68
2021/11/28 00:17:07;;;;;;;55.88;40.80;;;7.30;99.90;;;7.24;83.64;99311.25;5052377;28;20124;-68
2021/11/28 00:19:37;;;;;;;55.33;39.75;;;7.40;99.90;;;7.49;83.73;99353.81;5051803;28;20041;-68
2021/11/28 00:22:06;;;;;;;53.47;39.42;;;7.30;99.90;;;6.77;83.92;99234.94;5052018;28;20095;-68
2021/11/28 00:24:40;;;;;;;57.65;41.00;;;7.30;99.90;;;7.40;84.21;99351.31;5051797;28;20059;-68
2021/11/28 00:27:09;;;;;;;58.30;42.65;;;7.30;99.90;;;7.41;83.81;99350.44;5051862;28;20398;-68
2021/11/28 00:29:42;;;;;;;58.47;42.42;;;7.30;99.90;;;7.40;84.00;99343.41;5055748;28;20060;-68
2021/11/28 00:32:12;;;;;;;53.50;40.75;;;7.30;99.90;;;7.43;84.24;99354.78;5055657;28;20457;-68
2021/11/28 00:34:41;;;;;;;63.03;42.20;;;7.30;99.90;;;7.45;83.97;99360.91;5070991;28;20049;-68
2021/11/28 00:37:11;;;;;;;55.70;40.65;;;7.30;99.90;;;7.35;83.79;99334.75;5055646;28;20047;-68
2021/11/28 00:39:45;;;;;;;59.00;42.30;;;7.30;99.90;;;7.25;84.04;99334.03;5054402;28;20471;-68
2021/11/28 00:42:14;;;;;;;61.63;43.20;;;7.30;99.90;;;7.45;83.68;99368.78;5055622;28;20037;-68
2021/11/28 00:44:42;;;;;;;61.05;42.15;;;7.30;99.90;;;7.53;83.91;99372.13;5055653;28;20074;-68
2021/11/28 00:47:12;;;;;;;56.00;40.60;;;7.40;99.90;;;7.53;83.36;99377.38;5055332;28;20064;-68
2021/11/28 00:49:50;;;;;;;56.58;41.55;;;7.40;99.90;;;7.53;83.43;99368.66;5055443;28;20384;-68
2021/11/28 00:52:19;;;;;;;55.80;43.42;;;7.40;99.90;;;7.53;83.41;99376.53;5055157;28;20041;-68
2021/11/28 00:54:48;;;;;;;56.72;41.42;;;7.40;99.90;;;7.50;82.99;99377.44;5054038;28;20098;-68
2021/11/28 00:57:17;;;;;;;62.13;44.35;;;7.40;99.90;;;7.52;83.14;99369.53;5055257;28;20411;-68
2021/11/28 00:59:46;;;;;;;55.85;41.58;;;7.40;99.90;;;7.49;83.24;99382.75;5055420;28;20064;-68
2021/11/28 01:02:16;;;;;;;59.28;41.22;;;7.40;99.90;;;7.60;83.33;99386.06;5053925;28;20091;-68
2021/11/28 01:04:45;;;;;;;56.60;40.22;;;7.50;99.90;;;7.64;82.91;99400.91;5055108;28;20044;-68
2021/11/28 01:07:14;;;;;;;54.00;40.38;;;7.50;99.90;;;7.66;83.06;99397.38;5054959;28;20034;-68
2021/11/28 01:09:42;;;;;;;53.30;40.42;;;7.50;99.90;;;7.62;83.30;99406.19;5054666;28;20071;-68
2021/11/28 01:12:13;;;;;;;58.60;41.92;;;7.50;99.90;;;7.59;83.01;99400.13;5054719;28;20041;-68
2021/11/28 01:14:41;;;;;;;56.22;40.75;;;7.40;99.90;;;7.60;83.21;99400.09;5055030;28;20095;-68
2021/11/28 01:17:10;;;;;;;52.10;38.60;;;7.40;99.90;;;7.64;82.88;99400.91;5053625;28;20072;-68
2021/11/28 01:19:39;;;;;;;54.88;40.65;;;7.50;99.90;;;7.66;82.61;99409.66;5054688;28;20049;-68
2021/11/28 01:22:13;;;;;;;52.58;39.35;;;7.50;99.90;;;7.42;82.45;99373.19;5054852;28;20132;-68
2021/11/28 01:24:42;;;;;;;53.67;39.83;;;7.50;99.90;;;7.71;82.72;99429.72;5070421;28;20482;-68
2021/11/28 01:27:18;;;;;;;54.15;38.97;;;7.50;99.90;;;7.73;82.54;99427.94;5053665;28;20057;-68
2021/11/28 01:29:46;;;;;;;51.47;37.60;;;7.60;99.90;;;7.77;82.10;99429.63;5053350;28;20055;-68
2021/11/28 01:32:16;;;;;;;51.25;37.90;;;7.60;99.90;;;7.79;82.21;99425.22;5053478;28;20068;-68
2021/11/28 01:34:45;;;;;;;49.60;35.88;;;7.60;99.90;;;7.78;82.01;99433.97;5087043;28;20053;-68
2021/11/28 01:37:14;;;;;;;50.75;36.90;;;7.60;99.90;;;7.78;81.70;99436.63;5053268;28;20041;-68
2021/11/28 01:39:45;;;;;;;43.60;33.35;;;7.60;99.90;;;7.73;81.98;99427.06;5053166;28;20056;-68
2021/11/28 01:42:15;;;;;;;46.58;34.78;;;7.60;99.90;;;7.82;81.40;99451.47;5053188;28;20052;-68
2021/11/28 01:44:44;;;;;;;45.60;34.67;;;7.70;99.90;;;7.93;81.48;99443.41;5053157;28;20079;-68
2021/11/28 01:47:13;;;;;;;45.05;34.08;;;7.70;99.90;;;7.95;80.94;99450.38;5052974;28;20509;-68
2021/11/28 01:49:41;;;;;;;44.67;33.42;;;7.70;99.90;;;7.75;80.46;99428.78;5053040;28;20486;-68
2021/11/28 01:52:10;;;;;;;45.53;34.47;;;7.70;99.90;;;7.86;80.69;99449.66;5069608;28;20045;-68
2021/11/28 01:54:38;;;;;;;43.58;33.33;;;7.70;99.90;;;7.90;80.67;99461.88;5054203;28;20037;-68
2021/11/28 01:57:07;;;;;;;46.60;33.22;;;7.70;99.90;;;7.77;80.37;99453.31;5054129;28;20087;-68
2021/11/28 01:59:37;;;;;;;44.63;33.13;;;7.60;99.90;;;7.93;80.78;99460.06;5052841;28;20049;-69
2021/11/28 02:02:06;;;;;;;44.70;33.75;;;7.70;99.90;;;7.78;80.25;99436.63;5053047;28;20075;-68
2021/11/28 02:04:36;;;;;;;45.00;33.20;;;7.70;99.90;;;7.92;80.41;99455.69;5054040;28;20045;-68
2021/11/28 02:07:07;;;;;;;42.85;32.17;;;7.70;99.90;;;7.77;80.06;99448.06;5053917;28;20045;-69
2021/11/28 02:09:38;;;;;;;38.72;30.73;;;7.70;99.90;;;7.87;79.89;99464.56;5052475;28;20493;-69
2021/11/28 02:12:08;;;;;;;37.92;29.95;;;7.70;99.90;;;7.81;79.91;99472.56;5052738;28;20057;-69
2021/11/28 02:14:38;;;;;;;39.33;29.75;;;7.60;99.90;;;7.76;79.82;99462.09;5069214;28;20143;-69
2021/11/28 02:17:06;;;;;;;38.92;29.15;;;7.60;99.90;;;7.82;79.62;99469.03;5052692;28;20041;-69
2021/11/28 02:19:35;;;;;;;33.92;27.15;;;7.70;99.90;;;7.71;79.75;99466.56;5053911;28;20458;-68
2021/11/28 02:22:05;;;;;;;34.95;27.08;;;7.60;99.90;;;7.81;79.35;99473.44;5053677;28;20052;-69
2021/11/28 02:24:33;;;;;;;38.22;27.80;;;7.60;99.90;;;7.42;79.64;99421.41;5052205;28;20060;-68
2021/11/28 02:27:02;;;;;;;31.92;25.10;;;7.60;99.90;;;7.64;79.29;99451.78;5068956;28;20159;-68
2021/11/28 02:29:30;;;;;;;34.55;26.60;;;7.60;99.90;;;7.85;79.39;99479.50;5068571;28;20041;-68
2021/11/28 02:31:59;;;;;;;32.40;25.73;;;7.70;99.90;;;7.85;79.08;99488.28;5053139;28;20510;-68
2021/11/28 02:34:28;;;;;;;29.90;24.35;;;7.60;99.90;;;7.90;79.02;99490.81;5052215;28;20499;-68
2021/11/28 02:36:56;;;;;;;32.88;25.17;;;7.70;99.90;;;7.73;78.83;99480.56;5053412;28;20450;-68
2021/11/28 02:39:26;;;;;;;30.05;24.25;;;7.60;99.90;;;7.85;78.64;99500.56;5068796;28;20451;-68
2021/11/28 02:41:56;;;;;;;34.05;25.90;;;7.70;99.90;;;7.88;78.21;99492.59;5052056;28;20116;-68
2021/11/28 02:44:24;;;;;;;30.83;24.83;;;7.70;99.90;;;7.89;78.39;99495.25;5052025;28;20126;-68
2021/11/28 02:46:52;;;;;;;27.92;23.35;;;7.70;99.90;;;7.94;78.29;99497.78;5051977;28;20073;-68
2021/11/28 02:49:21;;;;;;;31.95;25.33;;;7.80;99.90;;;7.92;78.16;99497.81;5053137;28;20045;-69
2021/11/28 02:51:50;;;;;;;31.70;24.88;;;7.80;99.90;;;7.94;78.13;99503.03;5085480;28;20098;-68
2021/11/28 02:54:19;;;;;;;33.38;24.77;;;7.70;99.90;;;7.97;78.00;99501.25;5053203;28;20047;-68
2021/11/28 02:56:50;;;;;;;31.15;25.60;;;7.80;99.90;;;7.93;77.81;99510.09;5068834;28;20052;-69
2021/11/28 02:59:19;;;;;;;32.47;25.70;;;7.70;99.90;;;7.88;77.85;99514.53;5085329;28;20072;-68
2021/11/28 03:01:48;;;;;;;33.63;23.95;;;7.70;99.90;;;7.67;77.80;99474.50;5051751;28;20399;-68
2021/11/28 03:04:42;;;;;;;28.50;23.77;;;7.70;99.90;;;7.85;77.84;99519.88;5051786;28;20077;-68
2021/11/28 03:07:15;;;;;;;29.67;22.95;;;7.70;99.90;;;7.82;77.41;99517.25;5052914;28;20486;-68
2021/11/28 03:09:45;;;;;;;25.45;21.52;;;7.60;99.90;;;7.85;77.39;99516.34;5085210;28;20052;-68
2021/11/28 03:12:15;;;;;;;25.75;21.45;;;7.70;99.90;;;7.78;77.27;99510.31;5051662;28;20053;-68
2021/11/28 03:14:43;;;;;;;28.60;22.00;;;7.60;99.90;;;7.77;77.06;99518.22;5051654;28;20053;-68
2021/11/28 03:17:13;;;;;;;25.15;20.63;;;7.60;99.90;;;7.53;77.48;99473.88;5051659;28;20045;-68
2021/11/28 03:19:42;;;;;;;26.35;21.52;;;7.60;99.90;;;7.56;77.70;99468.56;5051661;28;20049;-69
2021/11/28 03:22:10;;;;;;;24.35;20.55;;;7.60;99.90;;;7.71;77.65;99507.78;5052338;28;20037;-67
2021/11/28 03:24:39;;;;;;;27.38;21.58;;;7.50;99.90;;;7.75;77.23;99510.34;5053029;28;20129;-68
2021/11/28 03:27:08;;;;;;;25.95;20.05;;;7.50;99.90;;;7.73;77.14;99509.50;5051464;28;20465;-68
2021/11/28 03:29:37;;;;;;;28.15;22.30;;;7.50;99.90;;;7.73;77.08;99506.88;5068075;28;20045;-68
2021/11/28 03:32:09;;;;;;;27.63;21.67;;;7.50;99.90;;;7.71;77.07;99513.06;5052782;28;20128;-68
2021/11/28 03:34:38;;;;;;;25.50;21.60;;;7.50;99.90;;;6.99;76.60;99388.75;5052947;28;20045;-68
2021/11/28 03:37:33;;;;;;;27.23;21.75;;;7.50;99.90;;;7.65;77.04;99519.28;5051409;28;20044;-68
2021/11/28 03:40:02;;;;;;;25.73;21.30;;;7.50;99.90;;;7.59;76.69;99518.50;5051338;28;20049;-68
2021/11/28 03:42:33;;;;;;;26.92;21.65;;;7.40;99.90;;;7.59;76.85;99519.38;5067763;28;20049;-68
2021/11/28 03:45:07;;;;;;;28.45;22.00;;;7.40;99.90;;;7.61;76.20;99512.31;5052706;28;20049;-69
2021/11/28 03:47:36;;;;;;;26.58;20.60;;;7.40;99.90;;;7.61;76.57;99514.06;5051291;28;20056;-68
2021/11/28 03:50:09;;;;;;;25.67;21.30;;;7.40;99.90;;;7.61;76.74;99509.69;5068010;28;20049;-68
2021/11/28 03:52:38;;;;;;;29.00;22.33;;;7.40;99.90;;;7.62;76.33;99515.81;5051255;28;20048;-68
2021/11/28 03:55:10;;;;;;;;;;;7.40;99.90;;;7.49;76.44;99486.19;5051424;28;20046;-68
2021/11/28 03:57:38;;;;;;;30.48;23.40;;;7.40;99.90;;;7.61;76.14;99516.69;5084733;28;19924;-68
2021/11/28 04:00:12;;;;;;;25.30;20.77;;;7.40;99.90;;;7.57;76.19;99525.56;5068075;28;20418;-68
2021/11/28 04:02:48;;;;;;;27.23;22.20;;;7.30;99.90;;;7.50;76.55;99514.25;5052932;28;20048;-68
2021/11/28 04:05:24;;;;;;;29.52;23.08;;;7.30;99.90;;;7.52;76.73;99517.72;5055058;28;20118;-68
2021/11/28 04:07:54;;;;;;;29.27;22.02;;;7.30;99.90;;;7.56;76.67;99516.78;5055254;28;20537;-68
2021/11/28 04:10:24;;;;;;;25.33;21.08;;;7.40;99.90;;;7.55;76.63;99528.19;5054670;28;20418;-68
2021/11/28 04:12:52;;;;;;;28.98;22.88;;;7.30;99.90;;;7.55;76.67;99520.28;5055894;28;20505;-68
2021/11/28 04:15:22;;;;;;;29.80;23.50;;;7.30;99.90;;;7.31;76.66;99491.72;5054467;28;20414;-68
2021/11/28 04:18:04;;;;;;;29.23;23.63;;;7.30;99.90;;;7.50;76.78;99530.03;5055213;28;20100;-68
2021/11/28 04:20:33;;;;;;;26.90;21.88;;;7.30;99.90;;;7.53;76.69;99532.59;5054918;28;20495;-69
2021/11/28 04:23:03;;;;;;;30.63;23.42;;;7.30;99.90;;;7.34;77.06;99517.97;5054360;28;20558;-68
2021/11/28 04:25:33;;;;;;;29.20;22.08;;;7.20;99.90;;;7.31;77.09;99520.66;5054628;28;20053;-68
2021/11/28 04:28:02;;;;;;;26.85;22.40;;;7.20;99.90;;;7.41;77.35;99524.03;5055834;28;20045;-69
2021/11/28 04:30:32;;;;;;;28.10;22.40;;;7.20;99.90;;;7.43;77.13;99522.25;5054456;28;20048;-69
2021/11/28 04:33:04;;;;;;;27.50;22.15;;;7.20;99.90;;;7.46;76.95;99525.69;5071120;28;20052;-69
2021/11/28 04:35:34;;;;;;;28.88;22.58;;;7.20;99.90;;;7.51;76.99;99526.50;5054861;28;20501;-69
2021/11/28 04:38:03;;;;;;;27.50;21.98;;;7.30;99.90;;;7.43;76.66;99507.34;5054495;28;20041;-69
2021/11/28 04:40:32;;;;;;;27.80;22.85;;;7.30;99.90;;;7.49;77.03;99536.16;5054418;28;20394;-68
2021/11/28 04:43:00;;;;;;;28.42;22.20;;;7.30;99.90;;;7.47;76.68;99526.56;5054103;28;20049;-68
2021/11/28 04:45:29;;;;;;;28.80;22.20;;;7.30;99.90;;;7.41;76.71;99522.28;5054188;28;20494;-68
2021/11/28 04:48:04;;;;;;;29.63;22.45;;;7.20;99.90;;;7.14;77.06;99497.19;5087801;28;20552;-68
2021/11/28 04:50:38;;;;;;;28.63;22.05;;;7.10;99.90;;;7.33;76.98;99526.75;5053803;28;20057;-69
2021/11/28 04:53:07;;;;;;;30.73;23.33;;;7.10;99.90;;;7.29;77.04;99525.94;5055404;28;20052;-68
2021/11/28 04:55:35;;;;;;;28.70;23.08;;;7.10;99.90;;;7.28;77.17;99525.91;5053984;28;20099;-68
2021/11/28 04:58:05;;;;;;;30.77;23.92;;;7.00;99.90;;;6.97;76.80;99474.63;5055598;28;20045;-68
2021/11/28 05:00:33;;;;;;;29.85;24.05;;;7.00;99.90;;;7.24;77.03;99521.59;5053961;28;20075;-69
2021/11/28 05:03:07;;;;;;;31.58;23.08;;;7.00;99.90;;;7.28;77.20;99529.44;5053988;28;20048;-68
2021/11/28 05:05:56;;;;;;;31.25;23.55;;;7.00;99.90;;;7.25;77.28;99528.59;5054839;28;20048;-68
2021/11/28 05:08:45;;;;;;;29.75;23.73;;;7.10;99.90;;;7.24;77.06;99522.47;5054764;28;20045;-68
2021/11/28 05:11:13;;;;;;;28.95;23.40;;;7.10;99.90;;;7.31;77.09;99536.41;5053840;28;20497;-68
2021/11/28 05:13:42;;;;;;;29.92;22.60;;;7.10;99.90;;;7.28;76.90;99547.84;5053360;28;20049;-68
2021/11/28 05:16:10;;;;;;;27.92;21.88;;;7.00;99.90;;;7.23;77.41;99551.41;5070224;28;20072;-68
2021/11/28 05:19:08;;;;;;;27.70;21.85;;;7.10;99.90;;;7.32;77.07;99556.56;5053605;28;20843;-68
2021/11/28 05:22:05;;;;;;;30.13;22.63;;;7.10;99.90;;;7.21;77.10;99556.72;5044946;28;20060;-68
2021/11/28 05:24:53;;;;;;;29.40;23.40;;;7.10;99.90;;;7.14;77.54;99568.16;5053452;28;20095;-68
2021/11/28 05:27:25;;;;;;;31.15;23.08;;;7.00;99.90;;;7.06;77.65;99571.78;5053466;28;20491;-68
2021/11/28 05:29:53;;;;;;;30.02;22.25;;;6.90;99.90;;;6.82;77.41;99564.16;5053020;28;20083;-68
2021/11/28 05:32:23;;;;;;;30.50;22.95;;;6.70;99.90;;;6.83;77.59;99550.16;5053498;28;20048;-68
2021/11/28 05:35:12;;;;;;;28.58;22.88;;;6.70;99.90;;;6.86;78.04;99564.13;5054739;28;20060;-68
2021/11/28 05:38:19;;;;;;;27.88;22.25;;;6.60;99.90;;;6.81;77.89;99533.53;5054310;28;20045;-68
2021/11/28 05:40:48;;;;;;;30.45;23.33;;;6.70;99.90;;;6.94;77.87;99558.78;5053293;28;20049;-68
2021/11/28 05:43:17;;;;;;;29.80;23.88;;;6.70;99.90;;;6.94;78.18;99557.03;5053211;28;20065;-68
2021/11/28 05:45:46;;;;;;;24.38;19.60;;;6.70;99.90;;;6.71;78.00;99540.63;5053174;28;20045;-68
2021/11/28 05:48:43;;;;;;;21.77;17.92;;;6.60;99.90;;;6.81;78.04;99554.53;5054396;28;20368;-68
2021/11/28 05:51:21;;;;;;;22.05;17.48;;;6.60;99.90;;;6.65;77.26;99555.56;5052947;28;20383;-68
2021/11/28 05:53:50;;;;;;;23.38;18.40;;;6.50;99.90;;;6.63;78.00;99557.34;5053143;28;20053;-68
2021/11/28 05:56:18;;;;;;;23.73;18.92;;;6.50;99.90;;;6.54;78.64;99554.81;5053117;28;20137;-68
2021/11/28 05:58:51;;;;;;;22.10;18.23;;;6.40;99.90;;;6.48;78.48;99568.88;5052882;28;20478;-69
2021/11/28 06:01:20;;;;;;;26.98;21.65;;;6.30;99.90;;;6.41;78.36;99555.81;5052939;28;20045;-68
2021/11/28 06:03:49;;;;;;;23.80;18.98;;;6.20;99.90;;;6.46;78.60;99585.53;5069508;28;20045;-68
2021/11/28 06:06:38;;;;;;;25.25;20.00;;;6.30;99.90;;;6.53;78.77;99584.56;5054125;28;20043;-68
2021/11/28 06:09:13;;;;;;;26.02;20.70;;;6.30;99.90;;;6.38;78.91;99578.59;5052701;28;20053;-68
2021/11/28 06:11:42;;;;;;;30.23;21.48;;;6.30;99.90;;;6.44;78.84;99593.44;5052496;28;20099;-68
2021/11/28 06:14:10;;;;;;;32.03;24.27;;;6.30;99.90;;;6.43;78.96;99581.16;5052558;28;20402;-69
2021/11/28 06:16:57;;;;;;;30.73;23.15;;;6.30;99.90;;;6.26;79.55;99575.19;5053649;28;20064;-69
2021/11/28 06:19:51;;;;;;;34.35;24.08;;;6.20;99.90;;;6.26;79.60;99597.06;5053425;28;20471;-68
2021/11/28 06:22:40;;;;;;;31.40;24.13;;;6.10;99.90;;;6.24;79.75;99601.47;5053739;28;20552;-68
2021/11/28 06:25:09;;;;;;;30.77;23.42;;;6.10;99.90;;;6.16;79.91;99587.50;5051821;28;20049;-68
2021/11/28 06:27:56;;;;;;;31.10;23.70;;;6.00;99.90;;;6.28;79.90;99602.28;5052179;28;20044;-68
2021/11/28 06:30:25;;;;;;;30.97;22.53;;;6.10;99.90;;;6.24;79.79;99609.34;5053235;28;20128;-68
2021/11/28 06:33:13;;;;;;;30.00;22.83;;;6.10;99.90;;;6.20;79.89;99601.47;5052826;28;20052;-68
2021/11/28 06:36:00;;;;;;;31.03;21.83;;;6.00;99.90;;;6.13;79.67;99607.66;5053334;28;20516;-68
2021/11/28 06:38:51;;;;;;;29.83;23.17;;;5.90;99.90;;;6.07;79.80;99611.22;5048991;28;20057;-68
2021/11/28 06:41:42;;;;;;;29.20;21.30;;;5.90;99.90;;;6.05;79.83;99610.34;5052945;28;20136;-68
2021/11/28 06:44:11;;;;;;;28.50;21.27;;;5.90;99.90;;;6.10;80.09;99612.91;5068641;28;20049;-68
2021/11/28 06:46:39;;;;;;;27.03;20.50;;;5.90;99.90;;;5.96;80.03;99620.88;5052008;28;20049;-68
2021/11/28 06:49:08;;;;;;;29.43;21.93;;;5.90;99.90;;;6.11;80.08;99623.44;5068560;28;20478;-68
2021/11/28 06:51:39;;;;;;;26.83;21.00;;;5.90;99.90;;;6.12;80.27;99625.16;5053206;28;20081;-69
2021/11/28 06:54:17;;;;;;;28.50;22.98;;;5.90;99.90;;;6.20;80.73;99631.22;5052030;28;20045;-69
2021/11/28 06:56:52;;;;;;;33.00;25.27;;;6.00;99.90;;;6.35;80.53;99631.13;5051948;28;20059;-68
2021/11/28 06:59:22;;;;;;;32.57;24.97;;;6.10;99.90;;;6.34;80.26;99636.38;5053057;28;20041;-69
2021/11/28 07:01:51;;;;;;;30.80;23.20;;;6.10;99.90;;;6.35;80.55;99640.75;5051941;28;20055;-68
2021/11/28 07:04:39;;;;;;;34.50;25.10;;;6.10;99.90;;;6.40;80.66;99633.72;5053094;28;20041;-68
2021/11/28 07:07:43;;;;;;;29.00;22.53;;;6.20;99.90;;;6.49;80.52;99638.00;5048550;28;20402;-68
2021/11/28 07:10:14;;;;;;;29.02;22.95;;;6.30;99.90;;;6.48;80.68;99642.41;5068276;28;20053;-68
2021/11/28 07:12:44;;;;;;;29.00;22.30;;;6.30;99.90;;;6.44;80.57;99645.06;5051631;28;20134;-69
2021/11/28 07:15:23;;;;;;;32.15;24.00;;;6.30;99.90;;;6.32;80.46;99640.78;5051639;28;20060;-68
2021/11/28 07:17:51;;;;;;;30.92;23.33;;;6.10;99.90;;;6.32;80.56;99638.16;5052908;28;20055;-68
2021/11/28 07:20:40;;;;;;;30.83;22.80;;;6.20;99.90;;;6.37;80.85;99644.22;5052141;28;20056;-68
2021/11/28 07:23:11;;;;;;;32.13;24.37;;;6.20;99.90;;;6.31;80.90;99655.66;5051354;28;20091;-68
2021/11/28 07:25:42;;;;;;;28.02;21.95;;;6.10;99.90;;;6.21;81.21;99661.84;5084729;28;20053;-68
2021/11/28 07:28:22;;;;;;;31.35;23.48;;;6.00;99.90;;;6.28;81.29;99660.94;5051501;28;20045;-68
2021/11/28 07:30:51;;;;;;;32.53;23.70;;;6.00;99.90;;;6.22;82.07;99653.09;5051458;28;20053;-69
2021/11/28 07:33:52;;;;;;;37.23;26.53;;;6.00;99.90;;;6.24;82.32;99672.34;5040214;28;20057;-68
2021/11/28 07:36:39;;;;;;;34.45;25.63;;;6.10;99.90;;;6.34;83.14;99674.03;5053263;28;20469;-68
2021/11/28 07:39:08;;;;;;;32.70;24.75;;;6.10;99.90;;;6.54;83.15;99681.78;5072043;28;20059;-68
2021/11/28 07:41:39;;;;;;;38.28;26.65;;;6.20;99.90;;;6.78;83.02;99688.56;5055507;28;20438;-68
2021/11/28 07:44:43;;;;;;;34.40;25.13;;;6.50;99.90;;;7.02;82.21;99693.63;5054388;28;20057;-68
2021/11/28 07:47:31;;;;;;;35.70;26.45;;;6.80;99.90;;;6.88;81.97;99690.22;5056427;28;20402;-68
2021/11/28 07:50:21;;;;;;;31.67;23.87;;;6.70;99.90;;;7.05;82.17;99709.34;5055338;28;20556;-68
2021/11/28 07:52:50;;;;;;;32.63;24.75;;;6.80;99.90;;;6.80;81.76;99673.66;5088566;28;20094;-69
2021/11/28 07:55:26;;;;;;;30.98;22.02;;;6.80;99.90;;;7.25;81.69;99717.94;5055414;28;20136;-68
2021/11/28 07:58:00;;;;;;;31.58;22.65;;;7.00;99.90;;;7.26;81.76;99717.91;5056775;28;20138;-69
2021/11/28 08:00:38;;;;;;;23.08;17.15;;;7.10;99.90;;;7.27;81.88;99722.31;5056305;28;20049;-69
2021/11/28 08:03:19;;;;;;;23.48;17.42;;;7.10;99.90;;;7.35;81.64;99722.22;5054962;28;20049;-69
2021/11/28 08:06:06;;;;;;;21.25;15.13;;;7.20;99.90;;;7.39;81.63;99744.09;5056309;28;20172;-70
2021/11/28 08:08:52;;;;;;;17.02;12.48;;;7.20;99.90;;;7.49;81.35;99749.22;5055007;28;20049;-70
2021/11/28 08:11:30;;;;;;;16.20;11.57;;;7.30;99.90;;;7.47;81.37;99751.00;5054798;28;20049;-70
2021/11/28 08:14:00;;;;;;;14.50;11.20;;;7.40;99.90;;;7.46;81.39;99749.28;5057064;28;20048;-69
2021/11/28 08:16:29;;;;;;;14.55;9.73;;;7.40;99.90;;;7.46;81.81;99749.28;5055787;28;20457;-70
2021/11/28 08:18:57;;;;;;;11.13;8.18;;;7.40;99.90;;;7.39;81.63;99741.47;5055848;28;20118;-69
2021/11/28 08:21:27;;;;;;;9.13;6.95;;;7.40;99.90;;;7.30;81.69;99747.66;5055790;28;20048;-69
2021/11/28 08:23:57;;;;;;;7.80;6.05;;;7.20;99.90;;;7.36;81.38;99752.00;5055884;28;20060;-70
2021/11/28 08:26:29;;;;;;;8.90;5.93;;;7.30;99.90;;;7.23;81.67;99751.25;5054647;28;20502;-70
2021/11/28 08:29:00;;;;;;;11.00;6.32;;;7.20;99.90;;;7.24;81.64;99737.22;5055954;28;20045;-70
2021/11/28 08:31:29;;;;;;;8.30;6.00;;;7.30;99.90;;;7.36;81.63;99762.53;5055412;28;20068;-70
2021/11/28 08:34:16;;;;;;;5.70;4.72;;;7.30;99.90;;;7.36;81.62;99773.91;5055723;28;20048;-70
2021/11/28 08:36:57;;;;;;;7.28;5.50;;;7.30;99.90;;;7.34;81.67;99772.22;5055718;28;20160;-70
2021/11/28 08:39:25;;;;;;;8.30;4.78;;;7.20;99.90;;;7.25;81.88;99773.16;5055685;28;20103;-70
2021/11/28 08:41:54;;;;;;;5.80;4.20;;;7.20;99.90;;;7.31;81.76;99773.09;5055340;28;20040;-70
2021/11/28 08:44:23;;;;;;;7.90;3.70;;;7.30;99.90;;;6.95;82.14;99750.63;5055288;28;20132;-70
2021/11/28 08:46:52;;;;;;;14.23;4.47;;;7.10;99.90;;;7.17;81.91;99782.84;5055427;28;20129;-70
2021/11/28 08:49:20;;;;;;;5.80;3.83;;;7.10;99.90;;;7.14;82.28;99782.91;5054747;28;20293;-70
2021/11/28 08:51:49;;;;;;;5.65;3.70;;;7.10;99.90;;;6.96;82.83;99781.28;5055132;28;20074;-69
2021/11/28 08:54:20;;;;;;;5.32;3.78;;;7.00;99.90;;;6.97;82.91;99790.91;5055486;28;20057;-70
2021/11/28 08:56:50;;;;;;;5.72;3.80;;;6.90;99.90;;;7.01;82.81;99786.47;5055449;28;20053;-70
2021/11/28 08:59:20;;;;;;;4.22;3.60;;;6.90;99.90;;;7.05;82.87;99799.59;5055022;28;20060;-70
2021/11/28 09:01:50;;;;;;;4.28;3.90;;;7.00;99.90;;;7.05;82.74;99802.22;5053984;28;20049;-70
2021/11/28 09:04:18;;;;;;;4.07;3.78;;;7.00;99.90;;;6.87;82.74;99806.75;5054981;28;20049;-70
2021/11/28 09:06:47;;;;;;;4.72;3.85;;;6.80;99.90;;;7.02;82.92;99810.16;5055398;28;20124;-70
2021/11/28 09:09:15;;;;;;;7.85;4.28;;;6.90;99.90;;;7.06;82.95;99808.38;5070794;28;20410;-70
2021/11/28 09:11:44;;;;;;;4.72;4.28;;;7.00;99.90;;;6.57;82.99;99725.50;5054800;28;20037;-70
2021/11/28 09:14:13;;;;;;;4.35;3.92;;;7.00;99.90;;;7.14;83.03;99812.66;5054683;28;20079;-69
2021/11/28 09:16:41;;;;;;;5.80;4.20;;;7.10;99.90;;;6.07;82.70;99661.06;5054824;28;20065;-69
2021/11/28 09:19:16;;;;;;;6.25;3.58;;;7.00;99.90;;;7.04;82.81;99815.41;5054995;28;20132;-70
2021/11/28 09:21:45;;;;;;;4.03;3.72;;;6.90;99.90;;;7.06;82.83;99826.78;5054693;28;20041;-69
2021/11/28 09:24:36;;;;;;;6.32;4.03;;;7.00;99.90;;;7.07;83.09;99824.13;5054651;28;20427;-73
2021/11/28 09:27:07;;;;;;;5.60;3.83;;;7.00;99.90;;;7.08;82.87;99827.63;5054830;28;20045;-71
2021/11/28 09:29:38;;;;;;;8.75;3.80;;;7.00;99.90;;;7.14;83.03;99825.81;5054606;28;20730;-70
2021/11/28 09:32:10;;;;;;;4.57;3.60;;;7.00;99.90;;;7.05;83.00;99838.16;5053455;28;20053;-70
2021/11/28 09:34:40;;;;;;;7.57;3.40;;;7.00;99.90;;;7.04;82.66;99833.78;5054978;28;20049;-70
2021/11/28 09:37:10;;;;;;;3.88;3.55;;;7.00;99.90;;;7.02;82.17;99832.94;5054455;28;20486;-71
2021/11/28 09:39:44;;;;;;;3.92;3.58;;;7.00;99.90;;;6.93;82.75;99841.75;5054430;28;20098;-70
2021/11/28 09:42:22;;;;;;;4.70;3.38;;;6.90;99.90;;;6.91;82.39;99842.66;5054380;28;20055;-71
2021/11/28 09:44:50;;;;;;;4.15;3.35;;;6.90;99.90;;;6.87;82.44;99836.53;5054300;28;20090;-74
2021/11/28 09:47:19;;;;;;;4.03;3.38;;;6.80;99.90;;;6.87;82.39;99835.66;5054398;28;20552;-70
2021/11/28 09:49:49;;;;;;;4.93;3.70;;;6.80;99.90;;;6.76;82.70;99824.31;5054262;28;20568;-70
2021/11/28 09:52:21;;;;;;;4.70;4.00;;;6.80;99.90;;;6.71;82.64;99799.84;5054233;28;20069;-71
2021/11/28 09:54:50;;;;;;;4.60;4.20;;;6.80;99.90;;;5.60;82.56;99604.44;5054116;28;20050;-69
2021/11/28 09:57:21;;;;;;;4.28;3.90;;;6.70;99.90;;;6.76;83.08;99819.06;5053935;28;20037;-69
2021/11/28 09:59:52;;;;;;;5.43;4.80;;;6.70;99.90;;;6.75;83.12;99814.72;5052958;28;20071;-71
2021/11/28 10:02:23;;;;;;;5.07;3.87;;;6.70;99.90;;;6.79;83.30;99816.44;5053762;28;20049;-70
2021/11/28 10:04:55;;;;;;;4.10;3.70;;;6.70;99.90;;;6.74;83.03;99800.69;5053893;28;20056;-72
2021/11/28 10:07:25;;;;;;;4.60;3.50;;;6.70;99.90;;;6.82;83.26;99796.28;5053677;28;20044;-73
2021/11/28 10:09:54;;;;;;;4.23;3.93;;;6.70;99.90;;;5.64;83.16;99600.94;5052759;28;20059;-70
2021/11/28 10:12:24;;;;;;;3.70;3.40;;;6.70;99.90;;;6.77;83.10;99787.56;5053543;28;20087;-70
2021/11/28 10:14:55;;;;;;;5.50;3.92;;;6.70;99.90;;;6.74;83.17;99791.94;5053891;28;20098;-71
2021/11/28 10:17:27;;;;;;;4.97;3.58;;;6.70;99.90;;;4.59;83.15;99431.09;5053632;28;20041;-72
2021/11/28 10:19:58;;;;;;;3.78;3.47;;;6.80;99.90;;;6.93;83.30;99797.06;5053750;28;20466;-70
2021/11/28 10:22:28;;;;;;;4.13;3.65;;;6.80;99.90;;;6.96;83.06;99799.69;5052375;28;20052;-71
2021/11/28 10:25:03;;;;;;;3.90;3.60;;;6.90;99.90;;;7.01;83.27;99808.41;5053561;28;20103;-71
2021/11/28 10:27:42;;;;;;;4.00;3.60;;;6.90;99.90;;;7.08;83.01;99812.72;5053632;28;20044;-71
2021/11/28 10:30:15;;;;;;;4.45;4.05;;;7.00;99.90;;;7.12;82.73;99821.47;5053418;28;20608;-71
2021/11/28 10:32:46;;;;;;;4.45;4.10;;;7.00;99.90;;;7.23;82.80;99817.00;5053560;28;20056;-71
2021/11/28 10:35:17;;;;;;;3.63;3.42;;;7.10;99.90;;;7.26;82.13;99817.84;5053155;28;20037;-70
2021/11/28 10:37:49;;;;;;;4.70;4.30;;;7.20;99.90;;;7.30;82.27;99818.69;5053275;28;20045;-71
2021/11/28 10:40:23;;;;;;;4.25;3.85;;;7.20;99.90;;;7.24;81.75;99819.59;5053426;28;20110;-72
2021/11/28 10:43:08;;;;;;;6.68;5.82;;;7.20;99.90;;;7.34;81.76;99820.41;5053209;28;20072;-72
2021/11/28 10:45:47;;;;;;;4.50;4.10;;;7.20;99.90;;;7.39;81.74;99833.53;5053052;28;20110;-71
2021/11/28 10:48:23;;;;;;;4.13;3.83;;;7.30;99.90;;;7.38;81.05;99840.53;5053076;28;20048;-73
2021/11/28 10:50:54;;;;;;;3.92;3.72;;;7.30;99.90;;;7.01;80.98;99779.47;5053341;28;20674;-74